sensor_id;sensor_type;location;lat;lon;timestamp;pressure;altitude;pressure_sealevel;temperature;humidity
64628;BME280;59036;50.960;0.314;2022-09-12T00:00:40;99794.25;;;14.91;84.19
64628;BME280;59036;50.960;0.314;2022-09-12T00:03:07;99791.27;;;14.94;83.04
64628;BME280;59036;50.960;0.314;2022-09-12T00:05:40;99789.08;;;14.93;81.93
64628;BME280;59036;50.960;0.314;2022-09-12T00:08:07;99786.23;;;15.08;81.53
64628;BME280;59036;50.960;0.314;2022-09-12T00:10:37;99789.61;;;15.43;81.29
64628;BME280;59036;50.960;0.314;2022-09-12T00:13:04;99790.24;;;15.26;79.92
64628;BME280;59036;50.960;0.314;2022-09-12T00:15:32;99789.44;;;15.39;80.88
64628;BME280;59036;50.960;0.314;2022-09-12T00:18:03;99788.60;;;15.34;80.65
64628;BME280;59036;50.960;0.314;2022-09-12T00:20:30;99788.37;;;14.88;81.41
64628;BME280;59036;50.960;0.314;2022-09-12T00:22:58;99789.06;;;15.38;81.09
64628;BME280;59036;50.960;0.314;2022-09-12T00:25:25;99786.37;;;15.04;80.96
64628;BME280;59036;50.960;0.314;2022-09-12T00:27:52;99783.87;;;15.24;81.27
64628;BME280;59036;50.960;0.314;2022-09-12T00:30:19;99781.06;;;14.99;81.27
64628;BME280;59036;50.960;0.314;2022-09-12T00:32:46;99776.16;;;15.04;80.69
64628;BME280;59036;50.960;0.314;2022-09-12T00:35:13;99771.46;;;14.95;81.34
64628;BME280;59036;50.960;0.314;2022-09-12T00:37:40;99767.94;;;14.90;83.24
64628;BME280;59036;50.960;0.314;2022-09-12T00:40:08;99760.64;;;14.89;83.25
64628;BME280;59036;50.960;0.314;2022-09-12T00:42:35;99757.66;;;15.26;82.33
64628;BME280;59036;50.960;0.314;2022-09-12T00:45:03;99755.76;;;14.74;82.97
64628;BME280;59036;50.960;0.314;2022-09-12T00:47:31;99757.29;;;14.90;82.50
64628;BME280;59036;50.960;0.314;2022-09-12T00:50:04;99755.91;;;14.65;84.13
64628;BME280;59036;50.960;0.314;2022-09-12T00:52:35;99751.42;;;14.51;85.50
64628;BME280;59036;50.960;0.314;2022-09-12T00:55:09;99754.96;;;14.34;85.52
64628;BME280;59036;50.960;0.314;2022-09-12T00:57:42;99753.81;;;14.75;84.30
64628;BME280;59036;50.960;0.314;2022-09-12T01:00:13;99751.77;;;14.52;85.01
64628;BME280;59036;50.960;0.314;2022-09-12T01:02:42;99748.29;;;14.64;84.69
64628;BME280;59036;50.960;0.314;2022-09-12T01:05:11;99747.16;;;14.67;83.68
64628;BME280;59036;50.960;0.314;2022-09-12T01:07:40;99749.18;;;15.05;83.33
64628;BME280;59036;50.960;0.314;2022-09-12T01:10:09;99748.37;;;14.80;83.80
64628;BME280;59036;50.960;0.314;2022-09-12T01:12:42;99748.08;;;15.02;83.58
64628;BME280;59036;50.960;0.314;2022-09-12T01:15:10;99744.51;;;14.82;83.32
64628;BME280;59036;50.960;0.314;2022-09-12T01:17:51;99745.64;;;15.13;81.73
64628;BME280;59036;50.960;0.314;2022-09-12T01:21:05;99745.51;;;15.46;82.29
64628;BME280;59036;50.960;0.314;2022-09-12T01:24:07;99738.21;;;14.77;84.55
64628;BME280;59036;50.960;0.314;2022-09-12T01:26:56;99740.23;;;15.20;83.34
64628;BME280;59036;50.960;0.314;2022-09-12T01:29:51;99734.76;;;14.79;84.57
64628;BME280;59036;50.960;0.314;2022-09-12T01:32:27;99732.96;;;14.89;84.67
64628;BME280;59036;50.960;0.314;2022-09-12T01:35:05;99731.75;;;14.37;86.72
64628;BME280;59036;50.960;0.314;2022-09-12T01:37:39;99732.34;;;14.17;87.49
64628;BME280;59036;50.960;0.314;2022-09-12T01:40:12;99727.44;;;14.31;86.30
64628;BME280;59036;50.960;0.314;2022-09-12T01:42:44;99729.83;;;14.52;87.35
64628;BME280;59036;50.960;0.314;2022-09-12T01:45:19;99727.83;;;15.06;84.80
64628;BME280;59036;50.960;0.314;2022-09-12T01:47:59;99726.18;;;15.06;83.52
64628;BME280;59036;50.960;0.314;2022-09-12T01:50:31;99726.33;;;14.99;82.98
64628;BME280;59036;50.960;0.314;2022-09-12T01:53:03;99723.61;;;15.46;81.60
64628;BME280;59036;50.960;0.314;2022-09-12T01:55:36;99727.70;;;14.99;82.45
64628;BME280;59036;50.960;0.314;2022-09-12T01:58:10;99722.49;;;15.59;80.47
64628;BME280;59036;50.960;0.314;2022-09-12T02:00:44;99727.98;;;15.49;81.71
64628;BME280;59036;50.960;0.314;2022-09-12T02:03:16;99730.03;;;15.01;82.64
64628;BME280;59036;50.960;0.314;2022-09-12T02:05:49;99729.33;;;15.51;81.84
64628;BME280;59036;50.960;0.314;2022-09-12T02:08:21;99723.11;;;15.30;80.89
64628;BME280;59036;50.960;0.314;2022-09-12T02:10:55;99722.43;;;15.68;80.04
64628;BME280;59036;50.960;0.314;2022-09-12T02:13:27;99723.99;;;15.23;81.61
64628;BME280;59036;50.960;0.314;2022-09-12T02:15:59;99724.19;;;15.15;81.93
64628;BME280;59036;50.960;0.314;2022-09-12T02:18:32;99719.87;;;15.29;80.52
64628;BME280;59036;50.960;0.314;2022-09-12T02:21:00;99721.68;;;15.43;80.49
64628;BME280;59036;50.960;0.314;2022-09-12T02:23:32;99722.81;;;14.95;82.33
64628;BME280;59036;50.960;0.314;2022-09-12T02:26:11;99719.72;;;15.38;81.82
64628;BME280;59036;50.960;0.314;2022-09-12T02:28:42;99720.77;;;15.03;82.93
64628;BME280;59036;50.960;0.314;2022-09-12T02:31:14;99716.51;;;15.24;81.95
64628;BME280;59036;50.960;0.314;2022-09-12T02:33:47;99710.00;;;14.96;82.27
64628;BME280;59036;50.960;0.314;2022-09-12T02:36:29;99705.76;;;14.80;83.36
64628;BME280;59036;50.960;0.314;2022-09-12T02:39:00;99699.11;;;14.81;84.44
64628;BME280;59036;50.960;0.314;2022-09-12T02:41:27;99702.99;;;14.91;84.14
64628;BME280;59036;50.960;0.314;2022-09-12T02:43:54;99700.69;;;15.50;82.57
64628;BME280;59036;50.960;0.314;2022-09-12T02:46:25;99701.99;;;15.14;82.24
64628;BME280;59036;50.960;0.314;2022-09-12T02:48:53;99695.68;;;14.96;83.01
64628;BME280;59036;50.960;0.314;2022-09-12T02:51:21;99695.64;;;14.82;83.24
64628;BME280;59036;50.960;0.314;2022-09-12T02:53:48;99689.29;;;14.67;84.70
64628;BME280;59036;50.960;0.314;2022-09-12T02:56:20;99691.94;;;14.96;82.94
64628;BME280;59036;50.960;0.314;2022-09-12T02:58:49;99690.51;;;15.25;80.99
64628;BME280;59036;50.960;0.314;2022-09-12T03:01:28;99692.15;;;14.93;82.57
64628;BME280;59036;50.960;0.314;2022-09-12T03:04:31;99692.71;;;15.47;80.23
64628;BME280;59036;50.960;0.314;2022-09-12T03:07:11;99689.60;;;15.58;78.09
64628;BME280;59036;50.960;0.314;2022-09-12T03:09:46;99693.80;;;15.14;80.56
64628;BME280;59036;50.960;0.314;2022-09-12T03:12:26;99693.08;;;14.70;83.04
64628;BME280;59036;50.960;0.314;2022-09-12T03:15:06;99693.43;;;15.04;82.85
64628;BME280;59036;50.960;0.314;2022-09-12T03:17:46;99693.58;;;14.99;82.90
64628;BME280;59036;50.960;0.314;2022-09-12T03:20:23;99688.53;;;15.15;81.03
64628;BME280;59036;50.960;0.314;2022-09-12T03:22:58;99683.80;;;14.75;82.31
64628;BME280;59036;50.960;0.314;2022-09-12T03:25:33;99681.03;;;14.85;82.24
64628;BME280;59036;50.960;0.314;2022-09-12T03:28:05;99678.48;;;14.82;82.48
64628;BME280;59036;50.960;0.314;2022-09-12T03:30:37;99682.45;;;15.38;80.30
64628;BME280;59036;50.960;0.314;2022-09-12T03:33:04;99679.63;;;15.65;78.93
64628;BME280;59036;50.960;0.314;2022-09-12T03:35:31;99678.44;;;15.06;79.84
64628;BME280;59036;50.960;0.314;2022-09-12T03:37:58;99675.30;;;15.13;80.53
64628;BME280;59036;50.960;0.314;2022-09-12T03:40:25;99677.76;;;15.32;80.14
64628;BME280;59036;50.960;0.314;2022-09-12T03:42:53;99678.49;;;15.18;79.42
64628;BME280;59036;50.960;0.314;2022-09-12T03:45:19;99674.18;;;15.21;79.08
64628;BME280;59036;50.960;0.314;2022-09-12T03:47:46;99667.14;;;15.18;78.16
64628;BME280;59036;50.960;0.314;2022-09-12T03:50:13;99669.75;;;15.02;80.93
64628;BME280;59036;50.960;0.314;2022-09-12T03:52:40;99668.66;;;14.64;81.61
64628;BME280;59036;50.960;0.314;2022-09-12T03:55:08;99664.78;;;15.01;81.99
64628;BME280;59036;50.960;0.314;2022-09-12T03:57:35;99664.37;;;14.83;81.54
64628;BME280;59036;50.960;0.314;2022-09-12T04:00:04;99661.76;;;14.72;82.02
64628;BME280;59036;50.960;0.314;2022-09-12T04:02:32;99663.78;;;14.91;81.59
64628;BME280;59036;50.960;0.314;2022-09-12T04:04:59;99664.66;;;15.86;78.35
64628;BME280;59036;50.960;0.314;2022-09-12T04:07:26;99664.05;;;15.30;77.34
64628;BME280;59036;50.960;0.314;2022-09-12T04:09:53;99661.72;;;16.12;75.39
64628;BME280;59036;50.960;0.314;2022-09-12T04:12:20;99657.92;;;15.72;76.16
64628;BME280;59036;50.960;0.314;2022-09-12T04:14:48;99658.53;;;14.81;78.71
64628;BME280;59036;50.960;0.314;2022-09-12T04:17:15;99655.86;;;15.53;77.89
64628;BME280;59036;50.960;0.314;2022-09-12T04:19:43;99651.01;;;15.39;78.07
64628;BME280;59036;50.960;0.314;2022-09-12T04:22:09;99651.96;;;14.85;80.56
64628;BME280;59036;50.960;0.314;2022-09-12T04:24:37;99648.66;;;15.00;80.61
64628;BME280;59036;50.960;0.314;2022-09-12T04:27:04;99646.77;;;14.93;80.26
64628;BME280;59036;50.960;0.314;2022-09-12T04:29:31;99642.01;;;14.71;81.72
64628;BME280;59036;50.960;0.314;2022-09-12T04:31:58;99639.05;;;14.99;81.19
64628;BME280;59036;50.960;0.314;2022-09-12T04:34:25;99639.67;;;14.73;80.83
64628;BME280;59036;50.960;0.314;2022-09-12T04:36:52;99643.14;;;15.23;79.26
64628;BME280;59036;50.960;0.314;2022-09-12T04:39:20;99640.19;;;15.64;77.17
64628;BME280;59036;50.960;0.314;2022-09-12T04:41:47;99640.78;;;14.90;80.09
64628;BME280;59036;50.960;0.314;2022-09-12T04:44:14;99645.01;;;14.78;81.12
64628;BME280;59036;50.960;0.314;2022-09-12T04:46:44;99643.69;;;14.53;81.36
64628;BME280;59036;50.960;0.314;2022-09-12T04:49:14;99636.69;;;14.43;82.50
64628;BME280;59036;50.960;0.314;2022-09-12T04:51:42;99634.99;;;14.16;83.13
64628;BME280;59036;50.960;0.314;2022-09-12T04:54:12;99629.80;;;14.58;82.97
64628;BME280;59036;50.960;0.314;2022-09-12T04:56:41;99625.88;;;14.49;83.21
64628;BME280;59036;50.960;0.314;2022-09-12T04:59:10;99625.61;;;14.35;83.66
64628;BME280;59036;50.960;0.314;2022-09-12T05:01:38;99628.03;;;14.67;82.80
64628;BME280;59036;50.960;0.314;2022-09-12T05:04:06;99627.50;;;14.97;80.29
64628;BME280;59036;50.960;0.314;2022-09-12T05:06:35;99628.17;;;15.16;79.87
64628;BME280;59036;50.960;0.314;2022-09-12T05:09:05;99633.80;;;15.44;79.13
64628;BME280;59036;50.960;0.314;2022-09-12T05:11:34;99632.37;;;14.82;80.39
64628;BME280;59036;50.960;0.314;2022-09-12T05:14:02;99630.30;;;14.83;81.86
64628;BME280;59036;50.960;0.314;2022-09-12T05:16:30;99625.18;;;14.96;80.83
64628;BME280;59036;50.960;0.314;2022-09-12T05:18:58;99625.91;;;15.41;79.57
64628;BME280;59036;50.960;0.314;2022-09-12T05:21:26;99622.45;;;15.20;79.72
64628;BME280;59036;50.960;0.314;2022-09-12T05:23:55;99623.95;;;14.89;80.93
64628;BME280;59036;50.960;0.314;2022-09-12T05:26:23;99624.23;;;14.71;81.69
64628;BME280;59036;50.960;0.314;2022-09-12T05:28:51;99627.91;;;14.63;81.32
64628;BME280;59036;50.960;0.314;2022-09-12T05:31:20;99627.36;;;14.97;80.64
64628;BME280;59036;50.960;0.314;2022-09-12T05:33:49;99633.07;;;15.16;79.72
64628;BME280;59036;50.960;0.314;2022-09-12T05:36:18;99634.89;;;15.17;80.24
64628;BME280;59036;50.960;0.314;2022-09-12T05:38:46;99624.76;;;15.00;81.08
64628;BME280;59036;50.960;0.314;2022-09-12T05:41:15;99631.76;;;14.64;81.92
64628;BME280;59036;50.960;0.314;2022-09-12T05:43:43;99634.25;;;15.23;80.21
64628;BME280;59036;50.960;0.314;2022-09-12T05:46:12;99637.03;;;14.97;80.15
64628;BME280;59036;50.960;0.314;2022-09-12T05:48:41;99636.69;;;15.80;77.39
64628;BME280;59036;50.960;0.314;2022-09-12T05:51:11;99640.96;;;15.79;76.59
64628;BME280;59036;50.960;0.314;2022-09-12T05:53:40;99639.25;;;15.93;75.21
64628;BME280;59036;50.960;0.314;2022-09-12T05:56:09;99638.04;;;15.93;76.66
64628;BME280;59036;50.960;0.314;2022-09-12T05:58:43;99634.53;;;15.56;77.80
64628;BME280;59036;50.960;0.314;2022-09-12T06:01:12;99632.28;;;14.97;80.06
64628;BME280;59036;50.960;0.314;2022-09-12T06:03:42;99633.19;;;14.93;80.61
64628;BME280;59036;50.960;0.314;2022-09-12T06:06:10;99632.16;;;15.16;80.13
64628;BME280;59036;50.960;0.314;2022-09-12T06:08:40;99631.57;;;14.88;80.64
64628;BME280;59036;50.960;0.314;2022-09-12T06:11:08;99635.59;;;15.23;79.56
64628;BME280;59036;50.960;0.314;2022-09-12T06:13:37;99633.49;;;15.45;78.95
64628;BME280;59036;50.960;0.314;2022-09-12T06:16:06;99631.53;;;15.55;77.75
64628;BME280;59036;50.960;0.314;2022-09-12T06:18:35;99627.52;;;15.67;78.17
64628;BME280;59036;50.960;0.314;2022-09-12T06:21:04;99631.57;;;15.58;79.29
64628;BME280;59036;50.960;0.314;2022-09-12T06:23:32;99635.28;;;15.57;79.10
64628;BME280;59036;50.960;0.314;2022-09-12T06:26:00;99637.13;;;15.78;78.53
64628;BME280;59036;50.960;0.314;2022-09-12T06:28:29;99638.09;;;15.70;77.77
64628;BME280;59036;50.960;0.314;2022-09-12T06:31:02;99636.29;;;16.42;75.56
64628;BME280;59036;50.960;0.314;2022-09-12T06:33:29;99634.91;;;16.37;77.36
64628;BME280;59036;50.960;0.314;2022-09-12T06:36:02;99637.08;;;16.19;77.59
64628;BME280;59036;50.960;0.314;2022-09-12T06:38:29;99637.26;;;16.18;78.86
64628;BME280;59036;50.960;0.314;2022-09-12T06:41:03;99637.29;;;15.80;80.06
64628;BME280;59036;50.960;0.314;2022-09-12T06:43:30;99637.08;;;15.81;80.21
64628;BME280;59036;50.960;0.314;2022-09-12T06:45:57;99637.28;;;15.68;80.77
64628;BME280;59036;50.960;0.314;2022-09-12T06:48:25;99634.21;;;15.82;80.62
64628;BME280;59036;50.960;0.314;2022-09-12T06:50:56;99636.16;;;16.31;79.17
64628;BME280;59036;50.960;0.314;2022-09-12T06:53:24;99635.23;;;15.96;79.22
64628;BME280;59036;50.960;0.314;2022-09-12T06:55:56;99635.31;;;16.16;80.17
64628;BME280;59036;50.960;0.314;2022-09-12T06:58:23;99633.19;;;15.89;80.13
64628;BME280;59036;50.960;0.314;2022-09-12T07:00:50;99630.22;;;15.93;81.22
64628;BME280;59036;50.960;0.314;2022-09-12T07:03:17;99624.06;;;16.20;80.08
64628;BME280;59036;50.960;0.314;2022-09-12T07:05:45;99620.73;;;16.25;80.99
64628;BME280;59036;50.960;0.314;2022-09-12T07:08:13;99622.12;;;15.93;81.78
64628;BME280;59036;50.960;0.314;2022-09-12T07:10:40;99623.27;;;15.66;82.57
64628;BME280;59036;50.960;0.314;2022-09-12T07:13:08;99620.12;;;15.76;82.64
64628;BME280;59036;50.960;0.314;2022-09-12T07:15:34;99621.76;;;16.43;79.74
64628;BME280;59036;50.960;0.314;2022-09-12T07:18:02;99626.00;;;16.45;79.26
64628;BME280;59036;50.960;0.314;2022-09-12T07:20:29;99628.92;;;16.13;80.79
64628;BME280;59036;50.960;0.314;2022-09-12T07:22:56;99627.77;;;16.33;80.61
64628;BME280;59036;50.960;0.314;2022-09-12T07:25:24;99628.83;;;16.64;79.03
64628;BME280;59036;50.960;0.314;2022-09-12T07:27:52;99632.72;;;16.68;78.90
64628;BME280;59036;50.960;0.314;2022-09-12T07:30:19;99632.07;;;16.40;80.15
64628;BME280;59036;50.960;0.314;2022-09-12T07:32:46;99634.87;;;16.03;79.93
64628;BME280;59036;50.960;0.314;2022-09-12T07:35:13;99640.50;;;16.62;78.41
64628;BME280;59036;50.960;0.314;2022-09-12T07:37:40;99639.92;;;16.60;78.91
64628;BME280;59036;50.960;0.314;2022-09-12T07:40:08;99637.62;;;16.67;79.17
64628;BME280;59036;50.960;0.314;2022-09-12T07:42:35;99638.01;;;16.30;79.62
64628;BME280;59036;50.960;0.314;2022-09-12T07:45:02;99636.34;;;17.01;78.74
64628;BME280;59036;50.960;0.314;2022-09-12T07:47:29;99634.22;;;16.84;77.87
64628;BME280;59036;50.960;0.314;2022-09-12T07:49:56;99636.88;;;17.09;76.66
64628;BME280;59036;50.960;0.314;2022-09-12T07:52:24;99635.11;;;16.79;79.42
64628;BME280;59036;50.960;0.314;2022-09-12T07:54:56;99630.14;;;16.13;81.40
64628;BME280;59036;50.960;0.314;2022-09-12T07:57:22;99630.10;;;16.76;79.57
64628;BME280;59036;50.960;0.314;2022-09-12T07:59:50;99631.54;;;17.01;77.74
64628;BME280;59036;50.960;0.314;2022-09-12T08:02:17;99635.71;;;17.37;77.03
64628;BME280;59036;50.960;0.314;2022-09-12T08:04:46;99636.78;;;17.28;77.74
64628;BME280;59036;50.960;0.314;2022-09-12T08:07:14;99643.37;;;16.85;79.53
64628;BME280;59036;50.960;0.314;2022-09-12T08:09:41;99641.99;;;17.30;76.90
64628;BME280;59036;50.960;0.314;2022-09-12T08:12:08;99641.59;;;17.51;75.87
64628;BME280;59036;50.960;0.314;2022-09-12T08:14:35;99645.83;;;17.32;76.00
64628;BME280;59036;50.960;0.314;2022-09-12T08:17:03;99649.52;;;17.49;75.65
64628;BME280;59036;50.960;0.314;2022-09-12T08:19:35;99650.06;;;17.01;76.71
64628;BME280;59036;50.960;0.314;2022-09-12T08:22:02;99648.70;;;17.72;74.30
64628;BME280;59036;50.960;0.314;2022-09-12T08:24:29;99646.45;;;17.50;76.03
64628;BME280;59036;50.960;0.314;2022-09-12T08:26:55;99641.78;;;17.46;74.50
64628;BME280;59036;50.960;0.314;2022-09-12T08:29:23;99642.78;;;17.68;75.42
64628;BME280;59036;50.960;0.314;2022-09-12T08:31:50;99634.74;;;17.65;74.52
64628;BME280;59036;50.960;0.314;2022-09-12T08:34:17;99631.71;;;17.25;75.30
64628;BME280;59036;50.960;0.314;2022-09-12T08:36:45;99626.25;;;18.03;73.76
64628;BME280;59036;50.960;0.314;2022-09-12T08:39:12;99625.94;;;17.99;74.00
64628;BME280;59036;50.960;0.314;2022-09-12T08:41:42;99634.85;;;18.39;73.62
64628;BME280;59036;50.960;0.314;2022-09-12T08:44:32;99632.59;;;17.62;76.00
64628;BME280;59036;50.960;0.314;2022-09-12T08:47:19;99637.42;;;17.52;75.14
64628;BME280;59036;50.960;0.314;2022-09-12T08:49:56;99636.60;;;17.89;73.79
64628;BME280;59036;50.960;0.314;2022-09-12T08:52:29;99646.13;;;17.97;73.48
64628;BME280;59036;50.960;0.314;2022-09-12T08:55:00;99646.13;;;18.16;72.72
64628;BME280;59036;50.960;0.314;2022-09-12T08:57:27;99642.95;;;18.70;71.30
64628;BME280;59036;50.960;0.314;2022-09-12T08:59:54;99645.73;;;18.71;71.01
64628;BME280;59036;50.960;0.314;2022-09-12T09:02:36;99647.36;;;18.78;70.97
64628;BME280;59036;50.960;0.314;2022-09-12T09:05:14;99646.07;;;18.90;70.85
64628;BME280;59036;50.960;0.314;2022-09-12T09:08:05;99648.80;;;18.83;71.12
64628;BME280;59036;50.960;0.314;2022-09-12T09:10:43;99647.41;;;18.64;71.79
64628;BME280;59036;50.960;0.314;2022-09-12T09:13:23;99653.46;;;18.18;72.35
64628;BME280;59036;50.960;0.314;2022-09-12T09:15:59;99653.22;;;18.36;73.21
64628;BME280;59036;50.960;0.314;2022-09-12T09:18:32;99654.20;;;18.55;72.67
64628;BME280;59036;50.960;0.314;2022-09-12T09:21:04;99655.49;;;18.34;73.78
64628;BME280;59036;50.960;0.314;2022-09-12T09:23:39;99651.67;;;19.22;70.20
64628;BME280;59036;50.960;0.314;2022-09-12T09:26:16;99647.65;;;18.93;71.07
64628;BME280;59036;50.960;0.314;2022-09-12T09:28:49;99636.78;;;18.56;70.97
64628;BME280;59036;50.960;0.314;2022-09-12T09:31:19;99640.91;;;19.16;69.89
64628;BME280;59036;50.960;0.314;2022-09-12T09:33:49;99637.47;;;18.69;71.60
64628;BME280;59036;50.960;0.314;2022-09-12T09:36:20;99635.17;;;19.07;70.75
64628;BME280;59036;50.960;0.314;2022-09-12T09:38:49;99633.24;;;19.48;68.83
64628;BME280;59036;50.960;0.314;2022-09-12T09:41:44;99629.25;;;19.18;71.30
64628;BME280;59036;50.960;0.314;2022-09-12T09:44:16;99624.25;;;19.04;69.77
64628;BME280;59036;50.960;0.314;2022-09-12T09:46:52;99621.24;;;18.83;69.01
64628;BME280;59036;50.960;0.314;2022-09-12T09:49:21;99618.55;;;19.58;69.75
64628;BME280;59036;50.960;0.314;2022-09-12T09:51:48;99614.35;;;19.32;68.80
64628;BME280;59036;50.960;0.314;2022-09-12T09:54:19;99615.73;;;19.41;68.16
64628;BME280;59036;50.960;0.314;2022-09-12T09:56:47;99611.07;;;19.22;69.77
64628;BME280;59036;50.960;0.314;2022-09-12T09:59:17;99606.66;;;19.68;69.20
64628;BME280;59036;50.960;0.314;2022-09-12T10:01:46;99602.12;;;19.54;68.38
64628;BME280;59036;50.960;0.314;2022-09-12T10:04:19;99603.00;;;19.13;69.05
64628;BME280;59036;50.960;0.314;2022-09-12T10:06:50;99600.57;;;19.40;69.30
64628;BME280;59036;50.960;0.314;2022-09-12T10:09:20;99595.93;;;19.59;69.56
64628;BME280;59036;50.960;0.314;2022-09-12T10:11:49;99590.78;;;19.80;68.35
64628;BME280;59036;50.960;0.314;2022-09-12T10:14:56;99578.55;;;20.49;65.95
64628;BME280;59036;50.960;0.314;2022-09-12T10:17:27;99579.86;;;20.02;66.99
64628;BME280;59036;50.960;0.314;2022-09-12T10:19:55;99578.53;;;19.92;67.73
64628;BME280;59036;50.960;0.314;2022-09-12T10:22:26;99580.83;;;20.63;65.04
64628;BME280;59036;50.960;0.314;2022-09-12T10:24:56;99580.59;;;20.45;65.81
64628;BME280;59036;50.960;0.314;2022-09-12T10:27:27;99575.38;;;20.07;65.97
64628;BME280;59036;50.960;0.314;2022-09-12T10:30:01;99570.92;;;20.00;65.96
64628;BME280;59036;50.960;0.314;2022-09-12T10:32:33;99561.28;;;20.17;67.31
64628;BME280;59036;50.960;0.314;2022-09-12T10:35:05;99562.23;;;20.75;63.83
64628;BME280;59036;50.960;0.314;2022-09-12T10:37:34;99563.52;;;21.43;63.48
64628;BME280;59036;50.960;0.314;2022-09-12T10:40:06;99558.54;;;21.19;62.71
64628;BME280;59036;50.960;0.314;2022-09-12T10:42:45;99556.57;;;20.63;65.29
64628;BME280;59036;50.960;0.314;2022-09-12T10:45:24;99551.77;;;20.99;61.70
64628;BME280;59036;50.960;0.314;2022-09-12T10:47:52;99550.59;;;21.40;60.90
64628;BME280;59036;50.960;0.314;2022-09-12T10:50:21;99543.30;;;21.10;62.28
64628;BME280;59036;50.960;0.314;2022-09-12T10:52:49;99546.82;;;20.63;62.30
64628;BME280;59036;50.960;0.314;2022-09-12T10:55:16;99556.34;;;20.66;63.56
64628;BME280;59036;50.960;0.314;2022-09-12T10:57:58;99562.21;;;20.87;63.37
64628;BME280;59036;50.960;0.314;2022-09-12T11:00:36;99563.57;;;20.46;64.88
64628;BME280;59036;50.960;0.314;2022-09-12T11:03:15;99560.82;;;19.68;65.45
64628;BME280;59036;50.960;0.314;2022-09-12T11:05:54;99563.09;;;20.09;65.28
64628;BME280;59036;50.960;0.314;2022-09-12T11:08:42;99562.37;;;19.88;65.90
64628;BME280;59036;50.960;0.314;2022-09-12T11:11:27;99560.06;;;19.75;66.55
64628;BME280;59036;50.960;0.314;2022-09-12T11:14:07;99558.48;;;20.21;64.87
64628;BME280;59036;50.960;0.314;2022-09-12T11:16:43;99562.50;;;19.75;66.35
64628;BME280;59036;50.960;0.314;2022-09-12T11:19:28;99563.08;;;19.69;66.92
64628;BME280;59036;50.960;0.314;2022-09-12T11:22:13;99563.65;;;19.48;66.61
64628;BME280;59036;50.960;0.314;2022-09-12T11:25:04;99564.25;;;19.76;66.12
64628;BME280;59036;50.960;0.314;2022-09-12T11:27:48;99560.65;;;19.79;65.59
64628;BME280;59036;50.960;0.314;2022-09-12T11:30:19;99564.60;;;20.01;65.37
64628;BME280;59036;50.960;0.314;2022-09-12T11:33:00;99565.34;;;20.06;65.95
64628;BME280;59036;50.960;0.314;2022-09-12T11:35:31;99563.50;;;20.16;65.37
64628;BME280;59036;50.960;0.314;2022-09-12T11:38:16;99564.46;;;19.94;66.15
64628;BME280;59036;50.960;0.314;2022-09-12T11:40:51;99563.13;;;20.24;65.62
64628;BME280;59036;50.960;0.314;2022-09-12T11:43:25;99564.14;;;20.11;65.01
64628;BME280;59036;50.960;0.314;2022-09-12T11:45:57;99557.06;;;20.35;63.68
64628;BME280;59036;50.960;0.314;2022-09-12T11:48:37;99557.79;;;19.99;65.05
64628;BME280;59036;50.960;0.314;2022-09-12T11:51:15;99560.14;;;20.08;63.11
64628;BME280;59036;50.960;0.314;2022-09-12T11:53:43;99560.17;;;20.01;64.16
64628;BME280;59036;50.960;0.314;2022-09-12T11:56:16;99557.14;;;19.95;66.02
64628;BME280;59036;50.960;0.314;2022-09-12T11:58:49;99556.13;;;20.43;64.95
64628;BME280;59036;50.960;0.314;2022-09-12T12:01:22;99558.19;;;21.37;62.95
64628;BME280;59036;50.960;0.314;2022-09-12T12:03:51;99560.18;;;21.66;61.01
64628;BME280;59036;50.960;0.314;2022-09-12T12:06:23;99562.56;;;21.68;61.32
64628;BME280;59036;50.960;0.314;2022-09-12T12:08:53;99559.93;;;21.73;61.22
64628;BME280;59036;50.960;0.314;2022-09-12T12:11:27;99560.69;;;21.87;61.68
64628;BME280;59036;50.960;0.314;2022-09-12T12:13:58;99558.60;;;21.23;60.47
64628;BME280;59036;50.960;0.314;2022-09-12T12:16:27;99555.79;;;21.85;60.18
64628;BME280;59036;50.960;0.314;2022-09-12T12:18:57;99558.37;;;21.82;61.21
64628;BME280;59036;50.960;0.314;2022-09-12T12:21:34;99558.64;;;21.72;60.62
64628;BME280;59036;50.960;0.314;2022-09-12T12:24:11;99561.16;;;22.36;57.23
64628;BME280;59036;50.960;0.314;2022-09-12T12:26:53;99556.74;;;22.53;58.18
64628;BME280;59036;50.960;0.314;2022-09-12T12:29:38;99554.80;;;22.32;57.57
64628;BME280;59036;50.960;0.314;2022-09-12T12:32:24;99551.58;;;22.09;59.90
64628;BME280;59036;50.960;0.314;2022-09-12T12:35:10;99539.68;;;22.54;56.22
64628;BME280;59036;50.960;0.314;2022-09-12T12:38:03;99541.26;;;22.54;57.03
64628;BME280;59036;50.960;0.314;2022-09-12T12:40:31;99545.14;;;22.03;58.45
64628;BME280;59036;50.960;0.314;2022-09-12T12:43:01;99528.66;;;22.38;57.43
64628;BME280;59036;50.960;0.314;2022-09-12T12:45:57;99523.94;;;21.76;58.76
64628;BME280;59036;50.960;0.314;2022-09-12T12:48:25;99530.01;;;21.87;57.74
64628;BME280;59036;50.960;0.314;2022-09-12T12:51:15;99531.59;;;21.77;59.17
64628;BME280;59036;50.960;0.314;2022-09-12T12:53:43;99527.88;;;22.21;56.95
64628;BME280;59036;50.960;0.314;2022-09-12T12:56:27;99523.87;;;22.59;57.23
64628;BME280;59036;50.960;0.314;2022-09-12T12:58:58;99518.60;;;22.08;57.41
64628;BME280;59036;50.960;0.314;2022-09-12T13:01:27;99508.82;;;22.21;56.30
64628;BME280;59036;50.960;0.314;2022-09-12T13:03:59;99513.30;;;22.05;57.89
64628;BME280;59036;50.960;0.314;2022-09-12T13:06:32;99511.31;;;22.45;57.09
64628;BME280;59036;50.960;0.314;2022-09-12T13:09:02;99509.53;;;22.81;56.51
64628;BME280;59036;50.960;0.314;2022-09-12T13:11:33;99508.50;;;22.86;55.93
64628;BME280;59036;50.960;0.314;2022-09-12T13:14:03;99511.94;;;22.75;53.65
64628;BME280;59036;50.960;0.314;2022-09-12T13:16:33;99508.09;;;23.24;54.41
64628;BME280;59036;50.960;0.314;2022-09-12T13:19:03;99512.97;;;23.15;55.08
64628;BME280;59036;50.960;0.314;2022-09-12T13:21:32;99512.20;;;22.89;52.82
64628;BME280;59036;50.960;0.314;2022-09-12T13:23:59;99511.10;;;22.82;52.65